sensor_id;sensor_type;location;lat;lon;timestamp;pressure;altitude;pressure_sealevel;temperature;humidity
20119;BME280;10220;42.716;23.306;2023-02-16T00:00:04;96552.63;;;0.62;100.00
20119;BME280;10220;42.716;23.306;2023-02-16T00:02:30;96520.13;;;0.65;100.00
20119;BME280;10220;42.716;23.306;2023-02-16T00:04:56;96576.28;;;0.87;100.00
20119;BME280;10220;42.716;23.306;2023-02-16T00:07:21;96576.44;;;0.73;100.00
20119;BME280;10220;42.716;23.306;2023-02-16T00:09:46;96558.75;;;0.59;100.00
20119;BME280;10220;42.716;23.306;2023-02-16T00:12:17;96553.84;;;0.69;100.00
20119;BME280;10220;42.716;23.306;2023-02-16T00:15:16;96559.31;;;0.75;100.00
20119;BME280;10220;42.716;23.306;2023-02-16T00:17:42;96559.91;;;0.79;100.00
20119;BME280;10220;42.716;23.306;2023-02-16T00:20:17;96554.53;;;1.05;100.00
20119;BME280;10220;42.716;23.306;2023-02-16T00:22:43;96564.72;;;0.94;100.00
20119;BME280;10220;42.716;23.306;2023-02-16T00:25:09;96564.34;;;0.88;100.00
20119;BME280;10220;42.716;23.306;2023-02-16T00:27:35;96582.03;;;0.78;100.00
20119;BME280;10220;42.716;23.306;2023-02-16T00:30:05;96565.84;;;0.56;100.00
20119;BME280;10220;42.716;23.306;2023-02-16T00:32:34;96564.63;;;0.49;100.00
20119;BME280;10220;42.716;23.306;2023-02-16T00:35:00;96549.16;;;0.40;100.00
20119;BME280;10220;42.716;23.306;2023-02-16T00:37:26;96567.16;;;0.72;100.00
20119;BME280;10220;42.716;23.306;2023-02-16T00:39:51;96568.81;;;0.73;100.00
20119;BME280;10220;42.716;23.306;2023-02-16T00:42:21;96553.28;;;0.76;100.00
20119;BME280;10220;42.716;23.306;2023-02-16T00:44:53;96570.47;;;0.85;100.00
20119;BME280;10220;42.716;23.306;2023-02-16T00:49:46;96568.19;;;0.93;100.00
20119;BME280;10220;42.716;23.306;2023-02-16T00:54:56;96551.75;;;0.74;100.00
20119;BME280;10220;42.716;23.306;2023-02-16T00:57:22;96559.25;;;0.99;100.00
20119;BME280;10220;42.716;23.306;2023-02-16T01:00:15;96564.81;;;0.93;100.00
20119;BME280;10220;42.716;23.306;2023-02-16T01:02:38;96552.53;;;0.63;100.00
20119;BME280;10220;42.716;23.306;2023-02-16T01:05:04;96489.56;;;0.19;100.00
20119;BME280;10220;42.716;23.306;2023-02-16T01:07:29;96554.81;;;0.56;100.00
20119;BME280;10220;42.716;23.306;2023-02-16T01:10:17;96516.00;;;0.29;100.00
20119;BME280;10220;42.716;23.306;2023-02-16T01:13:01;96570.16;;;0.66;100.00
20119;BME280;10220;42.716;23.306;2023-02-16T01:15:27;96542.16;;;0.31;100.00
20119;BME280;10220;42.716;23.306;2023-02-16T01:17:53;96542.13;;;0.66;100.00
20119;BME280;10220;42.716;23.306;2023-02-16T01:20:21;96563.22;;;0.68;100.00
20119;BME280;10220;42.716;23.306;2023-02-16T01:22:47;96546.84;;;0.37;100.00
20119;BME280;10220;42.716;23.306;2023-02-16T01:25:13;96522.91;;;0.03;100.00
20119;BME280;10220;42.716;23.306;2023-02-16T01:27:40;96548.13;;;0.19;100.00
20119;BME280;10220;42.716;23.306;2023-02-16T01:30:11;96485.16;;;-0.02;100.00
20119;BME280;10220;42.716;23.306;2023-02-16T01:32:37;96534.13;;;0.37;100.00
20119;BME280;10220;42.716;23.306;2023-02-16T01:35:03;96502.19;;;0.20;100.00
20119;BME280;10220;42.716;23.306;2023-02-16T01:37:28;96531.69;;;0.35;100.00
20119;BME280;10220;42.716;23.306;2023-02-16T01:39:54;96528.50;;;0.08;100.00
20119;BME280;10220;42.716;23.306;2023-02-16T01:45:24;96519.00;;;-0.25;100.00
20119;BME280;10220;42.716;23.306;2023-02-16T01:47:52;96514.50;;;-0.09;100.00
20119;BME280;10220;42.716;23.306;2023-02-16T01:50:25;96455.28;;;-0.24;100.00
20119;BME280;10220;42.716;23.306;2023-02-16T01:55:47;96508.06;;;-0.02;100.00
20119;BME280;10220;42.716;23.306;2023-02-16T01:58:39;96518.81;;;0.13;100.00
20119;BME280;10220;42.716;23.306;2023-02-16T02:04:27;96519.19;;;0.20;100.00
20119;BME280;10220;42.716;23.306;2023-02-16T02:07:20;96517.56;;;0.19;100.00
20119;BME280;10220;42.716;23.306;2023-02-16T02:12:43;96521.31;;;0.26;100.00
20119;BME280;10220;42.716;23.306;2023-02-16T02:15:11;96517.47;;;0.20;100.00
20119;BME280;10220;42.716;23.306;2023-02-16T02:17:38;96519.88;;;0.22;100.00
20119;BME280;10220;42.716;23.306;2023-02-16T02:20:20;96512.84;;;0.25;100.00
20119;BME280;10220;42.716;23.306;2023-02-16T02:41:36;96498.81;;;-0.03;100.00
20119;BME280;10220;42.716;23.306;2023-02-16T02:44:23;96515.59;;;-0.01;100.00
20119;BME280;10220;42.716;23.306;2023-02-16T02:46:48;96490.03;;;0.00;100.00
20119;BME280;10220;42.716;23.306;2023-02-16T02:49:14;96509.69;;;0.22;100.00
20119;BME280;10220;42.716;23.306;2023-02-16T02:51:40;96511.44;;;0.21;100.00
20119;BME280;10220;42.716;23.306;2023-02-16T02:56:58;96523.75;;;0.27;100.00
20119;BME280;10220;42.716;23.306;2023-02-16T02:59:47;96501.22;;;0.10;100.00
20119;BME280;10220;42.716;23.306;2023-02-16T03:02:35;96510.81;;;-0.05;100.00
20119;BME280;10220;42.716;23.306;2023-02-16T03:05:04;96518.56;;;-0.07;100.00
20119;BME280;10220;42.716;23.306;2023-02-16T03:07:32;96536.59;;;-0.22;100.00
20119;BME280;10220;42.716;23.306;2023-02-16T03:10:21;96515.88;;;-0.41;100.00
20119;BME280;10220;42.716;23.306;2023-02-16T03:13:21;96519.78;;;-0.60;100.00
20119;BME280;10220;42.716;23.306;2023-02-16T03:15:49;96530.81;;;-0.37;100.00
20119;BME280;10220;42.716;23.306;2023-02-16T03:18:21;96500.94;;;-0.95;100.00
20119;BME280;10220;42.716;23.306;2023-02-16T03:21:06;96523.53;;;-0.91;100.00
20119;BME280;10220;42.716;23.306;2023-02-16T03:23:53;96498.44;;;-0.83;100.00
20119;BME280;10220;42.716;23.306;2023-02-16T03:26:38;96505.81;;;-0.92;100.00
20119;BME280;10220;42.716;23.306;2023-02-16T03:29:23;96518.75;;;-0.58;100.00
20119;BME280;10220;42.716;23.306;2023-02-16T03:31:51;96528.50;;;-0.52;100.00
20119;BME280;10220;42.716;23.306;2023-02-16T03:34:19;96508.88;;;-0.87;100.00
20119;BME280;10220;42.716;23.306;2023-02-16T03:36:49;96516.22;;;-0.58;100.00
20119;BME280;10220;42.716;23.306;2023-02-16T03:39:17;96477.78;;;-0.78;100.00
20119;BME280;10220;42.716;23.306;2023-02-16T03:41:48;96501.34;;;-0.64;100.00
20119;BME280;10220;42.716;23.306;2023-02-16T03:44:15;96433.25;;;-0.96;100.00
20119;BME280;10220;42.716;23.306;2023-02-16T03:46:41;96518.56;;;-0.80;100.00
20119;BME280;10220;42.716;23.306;2023-02-16T03:49:06;96513.78;;;-1.48;100.00
20119;BME280;10220;42.716;23.306;2023-02-16T03:51:32;96517.78;;;-1.70;100.00
20119;BME280;10220;42.716;23.306;2023-02-16T03:53:57;96529.59;;;-1.83;100.00
20119;BME280;10220;42.716;23.306;2023-02-16T03:56:23;96497.53;;;-1.72;100.00
20119;BME280;10220;42.716;23.306;2023-02-16T03:58:48;96529.13;;;-1.49;100.00
20119;BME280;10220;42.716;23.306;2023-02-16T04:01:14;96511.41;;;-1.51;100.00
20119;BME280;10220;42.716;23.306;2023-02-16T04:03:39;96441.88;;;-2.13;100.00
20119;BME280;10220;42.716;23.306;2023-02-16T04:06:05;96510.94;;;-1.43;100.00
20119;BME280;10220;42.716;23.306;2023-02-16T04:08:30;96494.00;;;-1.43;100.00
20119;BME280;10220;42.716;23.306;2023-02-16T04:10:56;96506.81;;;-1.32;100.00
20119;BME280;10220;42.716;23.306;2023-02-16T04:13:22;96498.34;;;-1.45;100.00
20119;BME280;10220;42.716;23.306;2023-02-16T04:15:47;96499.47;;;-1.36;100.00
20119;BME280;10220;42.716;23.306;2023-02-16T04:18:13;96483.91;;;-1.44;100.00
20119;BME280;10220;42.716;23.306;2023-02-16T04:20:38;96501.84;;;-1.33;100.00
20119;BME280;10220;42.716;23.306;2023-02-16T04:23:04;96505.22;;;-1.20;100.00
20119;BME280;10220;42.716;23.306;2023-02-16T04:25:48;96513.25;;;-1.14;100.00
20119;BME280;10220;42.716;23.306;2023-02-16T04:28:13;96504.91;;;-1.16;100.00
20119;BME280;10220;42.716;23.306;2023-02-16T04:30:39;96515.75;;;-1.39;100.00
20119;BME280;10220;42.716;23.306;2023-02-16T04:33:04;96439.91;;;-1.70;100.00
20119;BME280;10220;42.716;23.306;2023-02-16T04:35:30;96451.69;;;-1.56;100.00
20119;BME280;10220;42.716;23.306;2023-02-16T04:37:55;96502.56;;;-1.19;100.00
20119;BME280;10220;42.716;23.306;2023-02-16T04:40:20;96487.81;;;-1.39;100.00
20119;BME280;10220;42.716;23.306;2023-02-16T04:42:46;96486.44;;;-1.44;100.00
20119;BME280;10220;42.716;23.306;2023-02-16T04:45:12;96457.59;;;-1.56;100.00
20119;BME280;10220;42.716;23.306;2023-02-16T04:47:37;96509.13;;;-1.29;100.00
20119;BME280;10220;42.716;23.306;2023-02-16T04:50:03;96500.97;;;-1.08;100.00
20119;BME280;10220;42.716;23.306;2023-02-16T04:52:29;96507.25;;;-1.01;100.00
20119;BME280;10220;42.716;23.306;2023-02-16T04:54:55;96531.34;;;-0.94;100.00
20119;BME280;10220;42.716;23.306;2023-02-16T04:57:20;96504.66;;;-1.38;100.00
20119;BME280;10220;42.716;23.306;2023-02-16T04:59:46;96518.09;;;-1.36;100.00
20119;BME280;10220;42.716;23.306;2023-02-16T05:02:12;96526.81;;;-1.27;100.00
20119;BME280;10220;42.716;23.306;2023-02-16T05:04:37;96540.09;;;-1.36;100.00
20119;BME280;10220;42.716;23.306;2023-02-16T05:07:02;96505.47;;;-1.76;100.00
20119;BME280;10220;42.716;23.306;2023-02-16T05:09:28;96539.13;;;-1.60;100.00
20119;BME280;10220;42.716;23.306;2023-02-16T05:11:53;96546.81;;;-1.48;100.00
20119;BME280;10220;42.716;23.306;2023-02-16T05:14:37;96547.41;;;-1.44;100.00
20119;BME280;10220;42.716;23.306;2023-02-16T05:17:27;96529.34;;;-1.40;100.00
20119;BME280;10220;42.716;23.306;2023-02-16T05:19:54;96552.25;;;-1.54;100.00
20119;BME280;10220;42.716;23.306;2023-02-16T05:22:20;96516.75;;;-1.68;100.00
20119;BME280;10220;42.716;23.306;2023-02-16T05:24:46;96498.78;;;-1.91;100.00
20119;BME280;10220;42.716;23.306;2023-02-16T05:27:18;96528.59;;;-1.54;100.00
20119;BME280;10220;42.716;23.306;2023-02-16T05:29:43;96550.56;;;-1.41;100.00
20119;BME280;10220;42.716;23.306;2023-02-16T05:32:09;96542.53;;;-1.47;100.00
20119;BME280;10220;42.716;23.306;2023-02-16T05:34:35;96542.91;;;-1.15;100.00
20119;BME280;10220;42.716;23.306;2023-02-16T05:37:00;96549.72;;;-1.15;100.00
20119;BME280;10220;42.716;23.306;2023-02-16T05:39:26;96536.38;;;-1.31;100.00
20119;BME280;10220;42.716;23.306;2023-02-16T05:41:51;96537.53;;;-1.49;100.00
20119;BME280;10220;42.716;23.306;2023-02-16T05:44:17;96544.59;;;-1.27;100.00
20119;BME280;10220;42.716;23.306;2023-02-16T05:46:42;96543.31;;;-1.20;100.00
20119;BME280;10220;42.716;23.306;2023-02-16T05:49:08;96552.03;;;-1.24;100.00
20119;BME280;10220;42.716;23.306;2023-02-16T05:51:35;96508.25;;;-1.28;100.00
20119;BME280;10220;42.716;23.306;2023-02-16T05:54:01;96507.91;;;-1.36;100.00
20119;BME280;10220;42.716;23.306;2023-02-16T05:56:26;96541.50;;;-0.94;100.00
20119;BME280;10220;42.716;23.306;2023-02-16T05:58:52;96552.03;;;-0.61;100.00
20119;BME280;10220;42.716;23.306;2023-02-16T06:01:19;96548.63;;;-0.37;100.00
20119;BME280;10220;42.716;23.306;2023-02-16T06:03:44;96485.00;;;-1.22;100.00
20119;BME280;10220;42.716;23.306;2023-02-16T06:06:10;96572.34;;;-0.73;100.00
20119;BME280;10220;42.716;23.306;2023-02-16T06:08:36;96561.59;;;-0.64;100.00
20119;BME280;10220;42.716;23.306;2023-02-16T06:11:02;96549.16;;;-0.57;100.00
20119;BME280;10220;42.716;23.306;2023-02-16T06:13:31;96555.78;;;-0.54;100.00
20119;BME280;10220;42.716;23.306;2023-02-16T06:15:56;96576.63;;;-0.74;100.00
20119;BME280;10220;42.716;23.306;2023-02-16T06:18:23;96564.53;;;-1.21;100.00
20119;BME280;10220;42.716;23.306;2023-02-16T06:20:48;96578.78;;;-1.07;100.00
20119;BME280;10220;42.716;23.306;2023-02-16T06:23:14;96570.19;;;-1.43;100.00
20119;BME280;10220;42.716;23.306;2023-02-16T06:25:41;96588.13;;;-1.46;100.00
20119;BME280;10220;42.716;23.306;2023-02-16T06:28:08;96584.38;;;-1.67;100.00
20119;BME280;10220;42.716;23.306;2023-02-16T06:30:33;96566.38;;;-1.76;100.00
20119;BME280;10220;42.716;23.306;2023-02-16T06:33:00;96561.63;;;-1.94;100.00
20119;BME280;10220;42.716;23.306;2023-02-16T06:35:25;96589.00;;;-1.59;100.00
20119;BME280;10220;42.716;23.306;2023-02-16T06:37:51;96579.78;;;-1.21;100.00
20119;BME280;10220;42.716;23.306;2023-02-16T06:40:16;96575.66;;;-0.98;100.00
20119;BME280;10220;42.716;23.306;2023-02-16T06:42:42;96565.81;;;-1.02;100.00
20119;BME280;10220;42.716;23.306;2023-02-16T06:45:08;96563.91;;;-1.25;100.00
20119;BME280;10220;42.716;23.306;2023-02-16T06:47:35;96552.75;;;-1.22;100.00
20119;BME280;10220;42.716;23.306;2023-02-16T06:50:01;96534.81;;;-0.95;100.00
20119;BME280;10220;42.716;23.306;2023-02-16T06:52:27;96577.72;;;-0.90;100.00
20119;BME280;10220;42.716;23.306;2023-02-16T06:54:52;96565.09;;;-1.04;100.00
20119;BME280;10220;42.716;23.306;2023-02-16T06:57:18;96564.50;;;-0.95;100.00
20119;BME280;10220;42.716;23.306;2023-02-16T06:59:43;96559.81;;;-0.14;100.00
20119;BME280;10220;42.716;23.306;2023-02-16T07:02:09;96554.91;;;0.54;100.00
20119;BME280;10220;42.716;23.306;2023-02-16T07:04:35;96573.47;;;0.79;100.00
20119;BME280;10220;42.716;23.306;2023-02-16T07:07:00;96562.25;;;0.82;100.00
20119;BME280;10220;42.716;23.306;2023-02-16T07:09:26;96507.09;;;0.92;100.00
20119;BME280;10220;42.716;23.306;2023-02-16T07:11:51;96536.84;;;1.25;100.00
20119;BME280;10220;42.716;23.306;2023-02-16T07:14:17;96541.31;;;1.67;100.00
20119;BME280;10220;42.716;23.306;2023-02-16T07:16:42;96519.50;;;1.52;100.00
20119;BME280;10220;42.716;23.306;2023-02-16T07:19:08;96463.94;;;1.34;100.00
20119;BME280;10220;42.716;23.306;2023-02-16T07:21:34;96539.31;;;2.14;100.00
20119;BME280;10220;42.716;23.306;2023-02-16T07:23:59;96543.59;;;2.35;100.00
20119;BME280;10220;42.716;23.306;2023-02-16T07:26:25;96474.00;;;2.32;100.00
20119;BME280;10220;42.716;23.306;2023-02-16T07:28:50;96541.91;;;2.88;100.00
20119;BME280;10220;42.716;23.306;2023-02-16T07:31:17;96512.69;;;2.70;100.00
20119;BME280;10220;42.716;23.306;2023-02-16T07:33:42;96496.84;;;2.96;100.00
20119;BME280;10220;42.716;23.306;2023-02-16T07:36:09;96485.91;;;2.85;100.00
20119;BME280;10220;42.716;23.306;2023-02-16T07:38:35;96547.75;;;3.30;100.00
20119;BME280;10220;42.716;23.306;2023-02-16T07:41:01;96520.59;;;3.18;100.00
20119;BME280;10220;42.716;23.306;2023-02-16T07:43:26;96522.44;;;2.76;100.00
20119;BME280;10220;42.716;23.306;2023-02-16T07:45:52;96501.06;;;2.66;100.00
20119;BME280;10220;42.716;23.306;2023-02-16T07:48:17;96542.50;;;2.91;100.00
20119;BME280;10220;42.716;23.306;2023-02-16T07:50:43;96499.81;;;2.91;100.00
20119;BME280;10220;42.716;23.306;2023-02-16T07:53:08;96498.75;;;2.94;100.00
20119;BME280;10220;42.716;23.306;2023-02-16T07:55:38;96545.25;;;3.40;100.00
20119;BME280;10220;42.716;23.306;2023-02-16T07:58:05;96520.44;;;3.40;100.00
20119;BME280;10220;42.716;23.306;2023-02-16T08:00:30;96572.78;;;3.27;100.00
20119;BME280;10220;42.716;23.306;2023-02-16T08:02:56;96543.25;;;3.43;100.00
20119;BME280;10220;42.716;23.306;2023-02-16T08:05:21;96516.69;;;3.44;100.00
20119;BME280;10220;42.716;23.306;2023-02-16T08:07:47;96521.75;;;3.85;100.00
20119;BME280;10220;42.716;23.306;2023-02-16T08:10:13;96529.75;;;3.91;100.00
20119;BME280;10220;42.716;23.306;2023-02-16T08:12:38;96499.81;;;3.62;100.00
20119;BME280;10220;42.716;23.306;2023-02-16T08:15:04;96563.91;;;3.51;100.00
20119;BME280;10220;42.716;23.306;2023-02-16T08:17:29;96539.38;;;3.48;100.00
20119;BME280;10220;42.716;23.306;2023-02-16T08:19:55;96567.13;;;3.73;100.00
20119;BME280;10220;42.716;23.306;2023-02-16T08:22:20;96575.75;;;3.93;100.00
20119;BME280;10220;42.716;23.306;2023-02-16T08:24:46;96562.13;;;3.92;100.00
20119;BME280;10220;42.716;23.306;2023-02-16T08:27:11;96563.03;;;3.82;100.00
20119;BME280;10220;42.716;23.306;2023-02-16T08:29:37;96566.13;;;4.15;100.00
20119;BME280;10220;42.716;23.306;2023-02-16T08:32:02;96573.91;;;4.43;100.00
20119;BME280;10220;42.716;23.306;2023-02-16T08:34:32;96557.38;;;4.27;100.00
20119;BME280;10220;42.716;23.306;2023-02-16T08:36:59;96514.06;;;4.24;100.00
20119;BME280;10220;42.716;23.306;2023-02-16T08:39:26;96556.75;;;4.53;100.00
20119;BME280;10220;42.716;23.306;2023-02-16T08:41:53;96562.09;;;4.80;100.00
20119;BME280;10220;42.716;23.306;2023-02-16T08:44:20;96551.81;;;4.80;100.00
20119;BME280;10220;42.716;23.306;2023-02-16T08:46:46;96531.69;;;5.04;100.00
20119;BME280;10220;42.716;23.306;2023-02-16T08:49:14;96515.06;;;4.61;100.00
20119;BME280;10220;42.716;23.306;2023-02-16T08:51:42;96537.50;;;4.87;100.00
20119;BME280;10220;42.716;23.306;2023-02-16T08:54:14;96553.56;;;5.55;100.00
20119;BME280;10220;42.716;23.306;2023-02-16T08:56:40;96499.69;;;5.17;100.00
20119;BME280;10220;42.716;23.306;2023-02-16T08:59:10;96563.38;;;5.69;100.00
20119;BME280;10220;42.716;23.306;2023-02-16T09:01:35;96553.16;;;5.40;100.00
20119;BME280;10220;42.716;23.306;2023-02-16T09:04:01;96545.53;;;5.67;100.00
20119;BME280;10220;42.716;23.306;2023-02-16T09:06:26;96544.84;;;5.84;100.00
20119;BME280;10220;42.716;23.306;2023-02-16T09:08:54;96528.50;;;6.12;100.00
20119;BME280;10220;42.716;23.306;2023-02-16T09:11:21;96558.22;;;5.87;100.00
20119;BME280;10220;42.716;23.306;2023-02-16T09:13:47;96547.59;;;6.63;100.00
20119;BME280;10220;42.716;23.306;2023-02-16T09:16:23;96533.69;;;6.91;100.00
20119;BME280;10220;42.716;23.306;2023-02-16T09:18:50;96542.19;;;6.83;99.48
20119;BME280;10220;42.716;23.306;2023-02-16T09:21:21;96522.91;;;6.16;100.00
20119;BME280;10220;42.716;23.306;2023-02-16T09:23:48;96528.25;;;6.59;100.00
20119;BME280;10220;42.716;23.306;2023-02-16T09:26:15;96552.28;;;6.67;99.80
20119;BME280;10220;42.716;23.306;2023-02-16T09:28:42;96531.19;;;6.20;100.00
20119;BME280;10220;42.716;23.306;2023-02-16T09:31:19;96530.59;;;5.99;100.00
20119;BME280;10220;42.716;23.306;2023-02-16T09:33:50;96513.81;;;6.66;99.22
20119;BME280;10220;42.716;23.306;2023-02-16T09:36:15;96527.38;;;7.20;97.02
20119;BME280;10220;42.716;23.306;2023-02-16T09:38:41;96509.34;;;7.20;95.13
20119;BME280;10220;42.716;23.306;2023-02-16T09:46:31;96514.81;;;7.93;87.87
20119;BME280;10220;42.716;23.306;2023-02-16T09:49:00;96487.56;;;8.16;84.35
20119;BME280;10220;42.716;23.306;2023-02-16T09:51:35;96520.28;;;7.64;85.14
20119;BME280;10220;42.716;23.306;2023-02-16T09:56:56;96496.47;;;8.29;82.96
20119;BME280;10220;42.716;23.306;2023-02-16T09:59:51;96487.00;;;8.04;81.58
20119;BME280;10220;42.716;23.306;2023-02-16T10:05:22;96486.94;;;7.20;84.67
20119;BME280;10220;42.716;23.306;2023-02-16T10:07:56;96461.50;;;7.17;90.02
20119;BME280;10220;42.716;23.306;2023-02-16T10:10:32;96463.69;;;8.21;83.64
20119;BME280;10220;42.716;23.306;2023-02-16T10:13:21;96481.91;;;8.93;77.54
20119;BME280;10220;42.716;23.306;2023-02-16T10:15:50;96446.53;;;8.77;75.11
20119;BME280;10220;42.716;23.306;2023-02-16T10:20:55;96449.31;;;9.16;72.85
20119;BME280;10220;42.716;23.306;2023-02-16T10:23:37;96458.66;;;8.85;75.31
20119;BME280;10220;42.716;23.306;2023-02-16T10:28:45;96450.91;;;9.33;71.46
20119;BME280;10220;42.716;23.306;2023-02-16T10:39:15;96434.75;;;9.93;68.54
20119;BME280;10220;42.716;23.306;2023-02-16T10:41:51;96447.47;;;10.48;66.87
20119;BME280;10220;42.716;23.306;2023-02-16T10:44:31;96444.78;;;10.86;61.69
20119;BME280;10220;42.716;23.306;2023-02-16T10:47:02;96373.19;;;10.85;59.50
20119;BME280;10220;42.716;23.306;2023-02-16T10:49:30;96414.19;;;10.59;59.13
20119;BME280;10220;42.716;23.306;2023-02-16T10:51:58;96440.16;;;9.75;62.71
20119;BME280;10220;42.716;23.306;2023-02-16T10:54:30;96437.03;;;9.95;65.62
20119;BME280;10220;42.716;23.306;2023-02-16T10:57:01;96407.41;;;10.28;63.75
20119;BME280;10220;42.716;23.306;2023-02-16T10:59:44;96430.06;;;10.34;62.21
20119;BME280;10220;42.716;23.306;2023-02-16T11:02:19;96420.50;;;10.65;61.00
20119;BME280;10220;42.716;23.306;2023-02-16T11:04:49;96408.56;;;9.95;63.46
20119;BME280;10220;42.716;23.306;2023-02-16T11:07:24;96400.56;;;10.05;63.67
20119;BME280;10220;42.716;23.306;2023-02-16T11:09:52;96387.16;;;9.55;64.51
20119;BME280;10220;42.716;23.306;2023-02-16T11:14:51;96386.09;;;9.96;64.04
20119;BME280;10220;42.716;23.306;2023-02-16T11:17:19;96394.03;;;9.79;65.79
20119;BME280;10220;42.716;23.306;2023-02-16T11:19:50;96378.22;;;10.42;62.73
20119;BME280;10220;42.716;23.306;2023-02-16T11:22:34;96389.56;;;10.86;60.33
20119;BME280;10220;42.716;23.306;2023-02-16T11:25:20;96378.78;;;10.30;59.46
20119;BME280;10220;42.716;23.306;2023-02-16T11:27:51;96377.97;;;10.52;60.25
20119;BME280;10220;42.716;23.306;2023-02-16T11:30:26;96386.22;;;10.02;60.27
20119;BME280;10220;42.716;23.306;2023-02-16T11:32:53;96361.56;;;10.14;60.34
20119;BME280;10220;42.716;23.306;2023-02-16T11:35:20;96375.00;;;10.10;61.68
20119;BME280;10220;42.716;23.306;2023-02-16T11:37:46;96367.09;;;10.03;62.41
20119;BME280;10220;42.716;23.306;2023-02-16T11:40:50;96356.56;;;10.35;61.31
20119;BME280;10220;42.716;23.306;2023-02-16T11:43:16;96355.72;;;10.65;60.21
20119;BME280;10220;42.716;23.306;2023-02-16T11:45:42;96357.56;;;10.93;58.77
20119;BME280;10220;42.716;23.306;2023-02-16T11:48:12;96358.81;;;11.34;55.77
20119;BME280;10220;42.716;23.306;2023-02-16T11:53:44;96362.03;;;11.50;54.60
20119;BME280;10220;42.716;23.306;2023-02-16T11:56:26;96339.38;;;11.44;54.71
20119;BME280;10220;42.716;23.306;2023-02-16T11:59:24;96334.81;;;11.17;55.11
20119;BME280;10220;42.716;23.306;2023-02-16T12:07:35;96329.00;;;11.15;54.63
20119;BME280;10220;42.716;23.306;2023-02-16T12:13:21;96316.63;;;11.03;54.09
20119;BME280;10220;42.716;23.306;2023-02-16T12:21:50;96315.66;;;11.47;54.80
20119;BME280;10220;42.716;23.306;2023-02-16T12:35:15;96298.59;;;12.02;52.15
20119;BME280;10220;42.716;23.306;2023-02-16T12:38:04;96263.19;;;11.95;52.05
20119;BME280;10220;42.716;23.306;2023-02-16T12:41:03;96225.69;;;11.62;51.62
20119;BME280;10220;42.716;23.306;2023-02-16T12:46:00;96257.19;;;11.02;52.80
20119;BME280;10220;42.716;23.306;2023-02-16T12:48:41;96272.63;;;11.38;53.83
20119;BME280;10220;42.716;23.306;2023-02-16T12:51:17;96279.25;;;11.41;53.97
20119;BME280;10220;42.716;23.306;2023-02-16T12:56:21;96260.50;;;11.39;53.04
20119;BME280;10220;42.716;23.306;2023-02-16T12:58:53;96274.44;;;11.67;52.06
20119;BME280;10220;42.716;23.306;2023-02-16T13:01:27;96248.22;;;11.62;53.24
20119;BME280;10220;42.716;23.306;2023-02-16T13:04:03;96124.75;;;11.17;52.47
20119;BME280;10220;42.716;23.306;2023-02-16T13:09:39;96243.56;;;12.34;51.64
20119;BME280;10220;42.716;23.306;2023-02-16T13:12:27;96248.31;;;12.51;50.92
20119;BME280;10220;42.716;23.306;2023-02-16T13:15:09;96235.38;;;12.37;50.55
20119;BME280;10220;42.716;23.306;2023-02-16T13:17:41;96243.06;;;12.45;50.41
20119;BME280;10220;42.716;23.306;2023-02-16T13:20:16;96230.28;;;12.23;51.09
20119;BME280;10220;42.716;23.306;2023-02-16T13:23:28;96235.50;;;12.50;50.30
20119;BME280;10220;42.716;23.306;2023-02-16T13:26:56;96216.69;;;12.21;50.95
20119;BME280;10220;42.716;23.306;2023-02-16T13:31:46;96227.69;;;12.02;50.61
20119;BME280;10220;42.716;23.306;2023-02-16T13:40:15;96230.84;;;12.18;50.48
20119;BME280;10220;42.716;23.306;2023-02-16T13:45:48;96219.22;;;11.93;50.10
20119;BME280;10220;42.716;23.306;2023-02-16T13:48:27;96220.50;;;11.83;50.29
20119;BME280;10220;42.716;23.306;2023-02-16T13:50:58;96212.81;;;11.96;50.65
20119;BME280;10220;42.716;23.306;2023-02-16T13:53:29;96219.75;;;12.10;50.10
20119;BME280;10220;42.716;23.306;2023-02-16T13:58:37;96216.31;;;12.03;49.28
20119;BME280;10220;42.716;23.306;2023-02-16T14:04:04;96207.75;;;12.29;49.52
20119;BME280;10220;42.716;23.306;2023-02-16T14:06:39;96208.06;;;12.20;49.01
20119;BME280;10220;42.716;23.306;2023-02-16T14:19:56;96200.78;;;12.57;48.37
20119;BME280;10220;42.716;23.306;2023-02-16T14:30:45;96193.91;;;12.02;48.76
20119;BME280;10220;42.716;23.306;2023-02-16T14:38:34;96198.84;;;12.18;49.07
20119;BME280;10220;42.716;23.306;2023-02-16T14:41:06;96185.75;;;12.05;49.01
20119;BME280;10220;42.716;23.306;2023-02-16T14:43:44;96190.22;;;12.11;49.04
20119;BME280;10220;42.716;23.306;2023-02-16T14:58:21;96137.91;;;11.72;49.70
20119;BME280;10220;42.716;23.306;2023-02-16T15:00:56;96157.31;;;11.97;49.95
20119;BME280;10220;42.716;23.306;2023-02-16T15:03:37;96176.47;;;11.96;49.82
20119;BME280;10220;42.716;23.306;2023-02-16T15:06:03;96180.03;;;11.88;49.65
20119;BME280;10220;42.716;23.306;2023-02-16T15:08:33;96124.28;;;11.64;49.70
20119;BME280;10220;42.716;23.306;2023-02-16T15:11:03;96158.44;;;11.88;50.78
20119;BME280;10220;42.716;23.306;2023-02-16T15:13:37;96154.53;;;11.77;51.05
20119;BME280;10220;42.716;23.306;2023-02-16T15:16:03;96143.50;;;11.69;50.88
20119;BME280;10220;42.716;23.306;2023-02-16T15:18:37;96156.84;;;11.66;50.82
20119;BME280;10220;42.716;23.306;2023-02-16T15:21:04;96151.59;;;11.60;51.71
20119;BME280;10220;42.716;23.306;2023-02-16T15:23:32;96166.84;;;11.69;52.31
20119;BME280;10220;42.716;23.306;2023-02-16T15:26:04;96184.72;;;11.78;52.32
20119;BME280;10220;42.716;23.306;2023-02-16T15:28:37;96177.97;;;11.63;53.90
20119;BME280;10220;42.716;23.306;2023-02-16T15:31:32;96181.00;;;11.67;53.14
20119;BME280;10220;42.716;23.306;2023-02-16T15:34:01;96137.78;;;11.24;54.39
20119;BME280;10220;42.716;23.306;2023-02-16T15:36:37;96141.66;;;11.13;54.76
20119;BME280;10220;42.716;23.306;2023-02-16T15:39:11;96198.94;;;11.33;55.43